Time;durP1;ratioP1;P1;durP2;ratioP2;P2;SDS_P1;SDS_P2;PMS_P1;PMS_P2;Temp;Humidity;BMP_temperature;BMP_pressure;BME280_temperature;BME280_humidity;BME280_pressure;Samples;Min_cycle;Max_cycle;Signal;HPM_P1;HPM_P2
2022/07/21 00:00:40;;;;;;;8.88;4.57;;;20.00;99.90;;;;;;5052348;28;20039;-75
2022/07/21 00:03:05;;;;;;;9.15;4.47;;;20.00;99.90;;;;;;5053387;28;20029;-75
2022/07/21 00:05:31;;;;;;;8.15;4.40;;;20.00;99.90;;;;;;5046002;28;20438;-74
2022/07/21 00:07:57;;;;;;;7.13;5.00;;;20.00;99.90;;;;;;5035539;28;20025;-75
2022/07/21 00:10:24;;;;;;;5.70;4.70;;;20.00;99.90;;;;;;5044272;28;20106;-74
2022/07/21 00:12:50;;;;;;;9.02;4.60;;;20.00;99.90;;;;;;5048878;28;20049;-75
2022/07/21 00:15:17;;;;;;;9.40;4.10;;;20.00;99.90;;;;;;5034936;28;20112;-75
2022/07/21 00:17:43;;;;;;;7.82;4.78;;;19.90;99.90;;;;;;5035034;28;20017;-75
2022/07/21 00:20:10;;;;;;;6.60;4.60;;;20.00;99.90;;;;;;5048305;28;20017;-74
2022/07/21 00:22:37;;;;;;;10.90;5.20;;;20.00;99.90;;;;;;5052918;28;20079;-75
2022/07/21 00:25:04;;;;;;;7.93;4.72;;;19.90;99.90;;;;;;5052464;28;20031;-76
2022/07/21 00:27:30;;;;;;;13.88;5.78;;;19.80;99.90;;;;;;5053036;28;20071;-75
2022/07/21 00:29:55;;;;;;;6.07;5.22;;;19.80;99.90;;;;;;5052236;28;20025;-76
2022/07/21 00:32:21;;;;;;;13.43;5.40;;;19.70;99.90;;;;;;5052492;28;20028;-75
2022/07/21 00:34:46;;;;;;;12.60;6.13;;;19.70;99.90;;;;;;5047320;28;20028;-76
2022/07/21 00:37:12;;;;;;;20.67;6.28;;;19.70;99.90;;;;;;5043715;28;20025;-75
2022/07/21 00:39:38;;;;;;;8.43;5.68;;;19.60;99.90;;;;;;5047292;28;20203;-75
2022/07/21 00:42:04;;;;;;;10.10;6.15;;;19.70;99.90;;;;;;5015150;28;20033;-76
2022/07/21 00:44:30;;;;;;;10.02;5.50;;;19.60;99.90;;;;;;5029585;28;20048;-76
2022/07/21 00:46:56;;;;;;;10.73;5.88;;;19.70;99.90;;;;;;5045464;28;20094;-76
2022/07/21 00:49:22;;;;;;;9.70;6.00;;;19.70;99.90;;;;;;5043886;28;20029;-76
2022/07/21 00:51:48;;;;;;;10.52;6.05;;;19.70;99.90;;;;;;5037347;28;20017;-75
2022/07/21 00:54:16;;;;;;;8.77;6.45;;;19.70;99.90;;;;;;5023032;28;20025;-75
2022/07/21 00:56:42;;;;;;;7.32;6.13;;;19.70;99.90;;;;;;5042842;28;20020;-75
2022/07/21 00:59:08;;;;;;;12.77;6.68;;;19.70;99.90;;;;;;5052144;28;20025;-76
2022/07/21 01:01:34;;;;;;;10.43;5.88;;;19.80;99.90;;;;;;5045345;28;20079;-75
2022/07/21 01:04:00;;;;;;;8.20;5.80;;;19.80;99.90;;;;;;5044333;28;20049;-75
2022/07/21 01:06:25;;;;;;;9.25;6.53;;;19.80;99.90;;;;;;5027857;28;20029;-75
2022/07/21 01:08:52;;;;;;;9.95;6.38;;;19.80;99.90;;;;;;5020492;28;20040;-76
2022/07/21 01:11:20;;;;;;;11.10;6.35;;;19.80;99.90;;;;;;5047591;28;20064;-76
2022/07/21 01:13:47;;;;;;;10.07;6.65;;;19.80;99.90;;;;;;5049777;28;20016;-75
2022/07/21 01:16:13;;;;;;;10.35;6.25;;;19.80;99.90;;;;;;5052072;28;20052;-76
2022/07/21 01:18:39;;;;;;;13.48;6.10;;;19.80;99.90;;;;;;5051677;28;20134;-76
2022/07/21 01:21:29;;;;;;;10.65;6.13;;;19.80;99.90;;;;;;5045775;28;20028;-75
2022/07/21 01:23:55;;;;;;;9.98;5.82;;;19.80;99.90;;;;;;5051619;28;20059;-76
2022/07/21 01:26:20;;;;;;;11.27;6.20;;;19.80;99.90;;;;;;5051316;28;20025;-76
2022/07/21 01:28:46;;;;;;;9.68;5.82;;;19.80;99.90;;;;;;5051763;28;20370;-75
2022/07/21 01:31:11;;;;;;;9.38;6.38;;;19.80;99.90;;;;;;5047000;28;20053;-76
2022/07/21 01:33:37;;;;;;;7.78;6.03;;;19.80;99.90;;;;;;5041304;28;20100;-76
2022/07/21 01:36:03;;;;;;;9.02;5.78;;;19.80;99.90;;;;;;5051230;28;20083;-76
2022/07/21 01:44:01;;;;;;;13.23;6.72;;;19.80;99.90;;;;;;5042197;28;20290;-76
2022/07/21 01:46:29;;;;;;;10.40;6.38;;;19.80;99.90;;;;;;5048046;28;20033;-76
2022/07/21 01:48:55;;;;;;;11.00;6.55;;;19.80;99.90;;;;;;5041008;28;20039;-76
2022/07/21 01:51:20;;;;;;;15.82;6.57;;;19.70;99.90;;;;;;5039623;28;20393;-76
2022/07/21 01:53:46;;;;;;;10.80;6.47;;;19.70;99.90;;;;;;5051322;28;20025;-76
2022/07/21 01:56:12;;;;;;;10.90;6.45;;;19.70;99.90;;;;;;5051328;28;20105;-76
2022/07/21 01:58:37;;;;;;;12.77;6.45;;;19.70;99.90;;;;;;5049778;28;20052;-77
2022/07/21 02:01:03;;;;;;;12.18;6.57;;;19.70;99.90;;;;;;5052818;28;20036;-77
2022/07/21 02:03:29;;;;;;;9.77;6.07;;;19.70;99.90;;;;;;5052604;28;20025;-77
2022/07/21 02:06:01;;;;;;;10.68;7.18;;;19.70;99.90;;;;;;5052996;28;20551;-78
2022/07/21 02:08:26;;;;;;;11.68;6.75;;;19.70;99.90;;;;;;5051915;28;20524;-77
2022/07/21 02:10:52;;;;;;;10.80;6.85;;;19.70;99.90;;;;;;5033030;28;20089;-78
2022/07/21 02:13:18;;;;;;;7.93;6.20;;;19.70;99.90;;;;;;5041636;28;20100;-77
2022/07/21 02:15:43;;;;;;;11.00;6.80;;;19.70;99.90;;;;;;5046438;28;20030;-77
2022/07/21 02:18:09;;;;;;;9.15;6.55;;;19.70;99.90;;;;;;5044803;28;20033;-77
2022/07/21 02:20:35;;;;;;;12.00;7.18;;;19.70;99.90;;;;;;5052344;28;20050;-77
2022/07/21 02:23:00;;;;;;;9.10;7.05;;;19.70;99.90;;;;;;5042371;28;20100;-77
2022/07/21 02:25:26;;;;;;;8.00;6.88;;;19.60;99.90;;;;;;5034564;28;20382;-77
2022/07/21 02:27:52;;;;;;;9.10;6.68;;;19.60;99.90;;;;;;5044755;28;20029;-77
2022/07/21 02:30:18;;;;;;;10.35;6.68;;;19.60;99.90;;;;;;5046553;28;20103;-77
2022/07/21 02:32:44;;;;;;;12.35;7.82;;;19.60;99.90;;;;;;5020627;28;20104;-77
2022/07/21 02:35:09;;;;;;;12.15;7.38;;;19.60;99.90;;;;;;5052456;28;20116;-77
2022/07/21 02:37:37;;;;;;;11.02;7.43;;;19.60;99.90;;;;;;5034829;28;20029;-78
2022/07/21 02:40:03;;;;;;;17.13;6.85;;;19.60;99.90;;;;;;5042685;28;20048;-78
2022/07/21 02:42:28;;;;;;;10.02;7.28;;;19.60;99.90;;;;;;5054044;28;20062;-77
2022/07/21 02:44:54;;;;;;;10.20;7.05;;;19.60;99.90;;;;;;5056296;28;20078;-77
2022/07/21 02:47:19;;;;;;;11.68;7.60;;;19.60;99.90;;;;;;5056560;28;20473;-77
2022/07/21 02:49:46;;;;;;;10.38;7.22;;;19.60;99.90;;;;;;5038550;28;20463;-77
2022/07/21 02:52:11;;;;;;;13.15;7.07;;;19.60;99.90;;;;;;5056375;28;20017;-77
2022/07/21 02:54:37;;;;;;;10.98;7.18;;;19.60;99.90;;;;;;5056411;28;20082;-80
2022/07/21 02:57:03;;;;;;;11.02;6.78;;;19.60;99.90;;;;;;5029392;28;20029;-79
2022/07/21 02:59:28;;;;;;;14.25;7.65;;;19.60;99.90;;;;;;5034525;28;20049;-80
2022/07/21 03:01:54;;;;;;;10.98;7.57;;;19.70;99.90;;;;;;5056968;28;20377;-79
2022/07/21 03:04:19;;;;;;;9.23;7.50;;;19.60;99.90;;;;;;5025231;28;20076;-80
2022/07/21 03:06:45;;;;;;;12.32;7.40;;;19.60;99.90;;;;;;5036734;28;20025;-80
2022/07/21 03:09:10;;;;;;;9.20;7.70;;;19.60;99.90;;;;;;5036804;28;20473;-80
2022/07/21 03:11:36;;;;;;;10.52;7.45;;;19.60;99.90;;;;;;5050551;28;20037;-80
2022/07/21 03:14:02;;;;;;;15.13;7.95;;;19.60;99.90;;;;;;5036485;28;20013;-80
2022/07/21 03:16:28;;;;;;;9.23;7.05;;;19.60;99.90;;;;;;5051814;28;20025;-80
2022/07/21 03:18:54;;;;;;;9.00;7.25;;;19.60;99.90;;;;;;5042994;28;20029;-80
2022/07/21 03:21:19;;;;;;;10.30;8.25;;;19.60;99.90;;;;;;5056387;28;20056;-80
2022/07/21 03:23:45;;;;;;;8.30;6.85;;;19.70;99.90;;;;;;5037834;28;20451;-80
2022/07/21 03:26:14;;;;;;;8.93;7.50;;;19.60;99.90;;;;;;5036186;28;20021;-80
2022/07/21 03:28:41;;;;;;;8.70;7.80;;;19.70;99.90;;;;;;5039718;28;20029;-80
2022/07/21 03:31:06;;;;;;;10.00;7.75;;;19.70;99.90;;;;;;5056372;28;20036;-80
2022/07/21 03:33:32;;;;;;;11.50;8.43;;;19.70;99.90;;;;;;5056426;28;20021;-81
2022/07/21 03:35:59;;;;;;;11.02;7.65;;;19.70;99.90;;;;;;5056579;28;20044;-81
2022/07/21 03:38:25;;;;;;;9.40;8.30;;;19.70;99.90;;;;;;5056262;28;20017;-80
2022/07/21 03:40:51;;;;;;;10.70;8.32;;;19.70;99.90;;;;;;5050984;28;20104;-81
2022/07/21 03:43:19;;;;;;;16.20;8.75;;;19.70;99.90;;;;;;5047353;28;20049;-80
2022/07/21 03:45:45;;;;;;;11.40;7.85;;;19.70;99.90;;;;;;5056153;28;20040;-81
2022/07/21 03:48:13;;;;;;;9.85;8.52;;;19.80;99.90;;;;;;5038452;28;20444;-81
2022/07/21 03:50:41;;;;;;;14.57;8.77;;;19.80;99.90;;;;;;5040049;28;20497;-81
2022/07/21 03:53:06;;;;;;;10.23;8.43;;;19.70;99.90;;;;;;5035276;28;20056;-80
2022/07/21 03:55:32;;;;;;;11.60;9.68;;;19.80;99.90;;;;;;5035997;28;20352;-81
2022/07/21 03:58:04;;;;;;;14.07;9.45;;;19.70;99.90;;;;;;5055991;28;20036;-80
2022/07/21 04:00:33;;;;;;;12.23;9.82;;;19.70;99.90;;;;;;5055817;28;20017;-80
2022/07/21 04:02:59;;;;;;;14.27;10.02;;;19.80;99.90;;;;;;5055525;28;20075;-80
2022/07/21 04:05:26;;;;;;;12.38;10.27;;;19.80;99.90;;;;;;5044081;28;20084;-80
2022/07/21 04:07:52;;;;;;;12.93;11.52;;;19.80;99.90;;;;;;5053176;28;20361;-80
2022/07/21 04:10:22;;;;;;;15.90;10.40;;;19.70;99.90;;;;;;5055548;28;20029;-80
2022/07/21 04:12:48;;;;;;;12.40;11.10;;;19.70;99.90;;;;;;5055205;28;20076;-74
2022/07/21 04:15:14;;;;;;;15.80;11.85;;;19.70;99.90;;;;;;5054527;28;20032;-72
2022/07/21 04:17:40;;;;;;;13.95;11.88;;;19.70;99.90;;;;;;5043684;28;20037;-71
2022/07/21 04:20:07;;;;;;;15.15;11.90;;;19.70;99.90;;;;;;5047166;28;20080;-68
2022/07/21 04:22:33;;;;;;;15.52;11.57;;;19.70;99.90;;;;;;5051645;28;20032;-70
2022/07/21 04:24:59;;;;;;;13.80;11.70;;;19.70;99.90;;;;;;5050917;28;20024;-70
2022/07/21 04:27:25;;;;;;;16.02;11.70;;;19.70;99.90;;;;;;5031216;28;20021;-69
2022/07/21 04:29:51;;;;;;;16.35;12.30;;;19.70;99.90;;;;;;5049527;28;20100;-69
2022/07/21 04:32:17;;;;;;;14.75;11.85;;;19.70;99.90;;;;;;5050184;28;20055;-69
2022/07/21 04:34:42;;;;;;;13.85;11.82;;;19.70;99.90;;;;;;5051147;28;21341;-69
2022/07/21 04:37:08;;;;;;;14.55;12.02;;;19.80;99.90;;;;;;5051202;28;20031;-70
2022/07/21 04:39:33;;;;;;;14.52;12.00;;;19.80;99.90;;;;;;5052540;28;20037;-68
2022/07/21 04:41:59;;;;;;;14.43;11.73;;;19.80;99.90;;;;;;5053365;28;20460;-69
2022/07/21 04:44:24;;;;;;;16.13;12.32;;;19.70;99.90;;;;;;5047827;28;20477;-68
2022/07/21 04:46:50;;;;;;;15.88;12.35;;;19.80;99.90;;;;;;5048375;28;20508;-69
2022/07/21 04:49:16;;;;;;;16.20;12.60;;;19.70;99.90;;;;;;5043246;28;20021;-68
2022/07/21 04:51:41;;;;;;;15.27;12.50;;;19.80;99.90;;;;;;5043964;28;20116;-68
2022/07/21 04:54:07;;;;;;;13.95;11.73;;;19.80;99.90;;;;;;5052670;28;20036;-69
2022/07/21 04:56:34;;;;;;;13.88;12.27;;;19.80;99.90;;;;;;5049245;28;20430;-69
2022/07/21 04:59:00;;;;;;;14.10;12.35;;;19.80;99.90;;;;;;5050711;28;20480;-69
2022/07/21 05:01:26;;;;;;;16.35;13.18;;;19.80;99.90;;;;;;5050677;28;20362;-69
2022/07/21 05:03:51;;;;;;;18.60;12.75;;;19.90;99.90;;;;;;5050671;28;20029;-69
2022/07/21 05:06:17;;;;;;;16.33;12.00;;;19.90;99.90;;;;;;5049452;28;20060;-69
2022/07/21 05:08:42;;;;;;;16.10;11.95;;;20.00;99.90;;;;;;5045671;28;20044;-70
2022/07/21 05:11:08;;;;;;;17.13;12.68;;;20.00;99.90;;;;;;5048644;28;20053;-70
2022/07/21 05:13:33;;;;;;;15.00;12.48;;;20.10;99.90;;;;;;5053306;28;20055;-71
2022/07/21 05:15:59;;;;;;;16.50;12.40;;;20.10;99.90;;;;;;5042858;28;20030;-69
2022/07/21 05:18:24;;;;;;;14.20;12.15;;;20.10;99.90;;;;;;5049699;28;20108;-69
2022/07/21 05:20:50;;;;;;;14.60;13.02;;;20.10;99.90;;;;;;5056016;28;20029;-71
2022/07/21 05:23:15;;;;;;;14.90;12.05;;;20.10;99.90;;;;;;5034053;28;20029;-71
2022/07/21 05:25:41;;;;;;;15.93;13.65;;;20.20;99.90;;;;;;5040602;28;20452;-71
2022/07/21 05:28:07;;;;;;;16.60;12.20;;;20.20;99.90;;;;;;5053486;28;20033;-71
2022/07/21 05:30:32;;;;;;;15.43;13.65;;;20.20;99.90;;;;;;5046175;28;20036;-69
2022/07/21 05:32:58;;;;;;;20.10;13.70;;;20.30;99.90;;;;;;5044162;28;20017;-72
2022/07/21 05:35:23;;;;;;;14.93;13.40;;;20.40;99.90;;;;;;5053595;28;20021;-71
2022/07/21 05:37:49;;;;;;;15.07;13.27;;;20.30;99.90;;;;;;5053492;28;20025;-72
2022/07/21 05:40:15;;;;;;;14.50;12.13;;;20.30;99.90;;;;;;5042297;28;20025;-71
2022/07/21 05:42:40;;;;;;;15.40;13.70;;;20.30;99.90;;;;;;5050695;28;20108;-71
2022/07/21 05:45:07;;;;;;;17.55;13.77;;;20.30;99.90;;;;;;5043177;28;20105;-69
2022/07/21 05:47:32;;;;;;;16.52;13.25;;;20.40;99.90;;;;;;5048122;28;20472;-69
2022/07/21 05:49:58;;;;;;;16.52;13.43;;;20.40;99.90;;;;;;5040775;28;20100;-69
2022/07/21 05:52:24;;;;;;;15.60;12.90;;;20.50;99.90;;;;;;5033358;28;20043;-80
2022/07/21 05:54:50;;;;;;;18.45;14.10;;;20.60;99.90;;;;;;5026750;28;20110;-79
2022/07/21 05:57:15;;;;;;;17.15;13.23;;;20.60;99.90;;;;;;5035116;28;20025;-79
2022/07/21 05:59:41;;;;;;;15.93;13.73;;;20.70;99.90;;;;;;5044428;28;20025;-79
2022/07/21 06:02:06;;;;;;;23.02;15.15;;;20.70;99.90;;;;;;5048164;28;20036;-79
2022/07/21 06:04:32;;;;;;;15.10;13.57;;;20.80;99.90;;;;;;5028938;28;20080;-79
2022/07/21 06:06:57;;;;;;;16.83;13.52;;;20.80;99.90;;;;;;5033326;28;20048;-79
2022/07/21 06:09:23;;;;;;;19.90;13.60;;;20.80;99.90;;;;;;5033281;28;20029;-79
2022/07/21 06:11:50;;;;;;;16.83;15.00;;;20.80;99.90;;;;;;5032875;28;20144;-79
2022/07/21 06:14:16;;;;;;;17.23;14.80;;;20.80;99.90;;;;;;5038946;28;20108;-77
2022/07/21 06:16:41;;;;;;;19.17;14.98;;;20.90;99.90;;;;;;5040108;28;20026;-77
2022/07/21 06:19:07;;;;;;;17.77;14.38;;;20.80;99.90;;;;;;5041119;28;20031;-77
2022/07/21 06:21:33;;;;;;;16.98;15.15;;;20.80;99.90;;;;;;5042199;28;20517;-77
2022/07/21 06:23:59;;;;;;;17.58;15.77;;;20.90;99.90;;;;;;5061075;28;20025;-78
2022/07/21 06:26:25;;;;;;;18.60;16.42;;;20.90;99.90;;;;;;5060371;28;20031;-77
2022/07/21 06:28:51;;;;;;;18.80;16.92;;;20.90;99.90;;;;;;5060560;28;20090;-77
2022/07/21 06:31:16;;;;;;;21.67;17.20;;;20.90;99.90;;;;;;5059931;28;20473;-78
2022/07/21 06:33:42;;;;;;;21.08;18.80;;;20.90;99.90;;;;;;5056413;28;20525;-77
2022/07/21 06:36:09;;;;;;;19.15;17.20;;;20.90;99.90;;;;;;5046815;28;20029;-77
2022/07/21 06:38:35;;;;;;;18.40;16.35;;;20.90;99.90;;;;;;5040190;28;20032;-77
2022/07/21 06:41:04;;;;;;;21.77;18.45;;;20.90;99.90;;;;;;5058499;28;20025;-77
2022/07/21 06:43:32;;;;;;;20.38;17.70;;;20.90;99.90;;;;;;5058265;28;20036;-77
2022/07/21 06:45:58;;;;;;;21.65;18.30;;;20.90;99.90;;;;;;5055849;28;20103;-77
2022/07/21 06:48:24;;;;;;;19.38;17.25;;;20.80;99.90;;;;;;5052406;28;20056;-76
2022/07/21 06:50:52;;;;;;;20.40;17.83;;;20.80;99.90;;;;;;5051984;28;20488;-77
2022/07/21 06:53:20;;;;;;;19.80;17.55;;;21.00;99.90;;;;;;5054683;28;20021;-77
2022/07/21 06:55:46;;;;;;;18.77;16.08;;;21.10;99.90;;;;;;5057940;28;20021;-77
2022/07/21 06:58:17;;;;;;;22.77;18.45;;;21.10;99.90;;;;;;5057612;28;20028;-77
2022/07/21 07:00:44;;;;;;;18.75;16.75;;;21.20;99.90;;;;;;5040052;28;20017;-77
2022/07/21 07:03:14;;;;;;;20.63;16.88;;;21.20;99.90;;;;;;5057984;28;20062;-76
2022/07/21 07:05:40;;;;;;;19.83;16.80;;;21.20;99.90;;;;;;5055294;28;20021;-77
2022/07/21 07:08:07;;;;;;;17.10;15.35;;;21.30;99.90;;;;;;5057604;28;20023;-77
2022/07/21 07:10:32;;;;;;;23.13;16.90;;;21.40;99.90;;;;;;5039861;28;20100;-77
2022/07/21 07:13:01;;;;;;;17.02;15.23;;;21.50;99.90;;;;;;5056466;28;20041;-77
2022/07/21 07:15:27;;;;;;;21.80;17.02;;;21.60;99.90;;;;;;5051280;28;20019;-77
2022/07/21 07:17:53;;;;;;;19.10;14.60;;;21.50;99.90;;;;;;5039921;28;20036;-77
2022/07/21 07:20:18;;;;;;;19.65;15.57;;;21.50;99.90;;;;;;5057215;28;20033;-77
2022/07/21 07:22:44;;;;;;;16.77;14.52;;;21.50;99.90;;;;;;5058133;28;20029;-77
2022/07/21 07:25:10;;;;;;;18.02;14.57;;;21.60;99.90;;;;;;5055561;28;20029;-78
2022/07/21 07:27:36;;;;;;;16.35;13.48;;;21.70;99.90;;;;;;5045422;28;20061;-78
2022/07/21 07:30:03;;;;;;;16.10;14.48;;;21.80;99.90;;;;;;5048707;28;20026;-80
2022/07/21 07:32:29;;;;;;;15.57;13.93;;;21.90;99.90;;;;;;5041021;28;20021;-80
2022/07/21 07:34:54;;;;;;;16.27;14.07;;;22.00;99.90;;;;;;5044645;28;20027;-77
2022/07/21 07:37:20;;;;;;;17.40;13.95;;;22.10;99.90;;;;;;5053002;28;20055;-78
2022/07/21 07:39:46;;;;;;;17.42;13.40;;;22.10;99.90;;;;;;5051771;28;20029;-79
2022/07/21 07:42:11;;;;;;;17.25;12.98;;;22.20;99.90;;;;;;5036754;28;20029;-81
2022/07/21 07:44:37;;;;;;;15.05;12.85;;;22.30;99.90;;;;;;5037460;28;20027;-80
2022/07/21 07:47:03;;;;;;;15.52;12.00;;;22.40;99.90;;;;;;5042369;28;20029;-81
2022/07/21 07:49:30;;;;;;;16.25;12.90;;;22.60;99.90;;;;;;5037566;28;20040;-80
2022/07/21 07:51:56;;;;;;;16.00;13.43;;;22.60;99.90;;;;;;5055563;28;20057;-81
2022/07/21 07:54:21;;;;;;;18.05;13.52;;;22.70;99.90;;;;;;5055944;28;20025;-81
2022/07/21 07:56:47;;;;;;;14.70;12.55;;;22.60;99.90;;;;;;5055479;28;20043;-81
2022/07/21 07:59:13;;;;;;;17.15;12.73;;;22.70;99.90;;;;;;5046577;28;20025;-81
2022/07/21 08:01:39;;;;;;;17.10;12.10;;;22.70;99.90;;;;;;5049570;28;20025;-79
2022/07/21 08:04:04;;;;;;;14.77;11.68;;;22.70;99.90;;;;;;5035675;28;20075;-80
2022/07/21 08:06:30;;;;;;;16.08;12.15;;;22.80;99.90;;;;;;5036348;28;20025;-81
2022/07/21 08:08:56;;;;;;;17.52;12.00;;;22.70;99.90;;;;;;5054983;28;20029;-81
2022/07/21 08:11:24;;;;;;;14.20;11.48;;;22.70;99.90;;;;;;5054979;28;20077;-80
2022/07/21 08:13:49;;;;;;;11.55;10.38;;;22.70;99.90;;;;;;5053686;28;20021;-80
2022/07/21 08:16:15;;;;;;;12.25;10.55;;;22.60;99.90;;;;;;5054947;28;20017;-81
2022/07/21 08:18:42;;;;;;;16.73;11.07;;;22.70;99.90;;;;;;5036922;28;20407;-80
2022/07/21 08:21:08;;;;;;;12.60;10.30;;;22.60;99.90;;;;;;5054710;28;20047;-80
2022/07/21 08:23:34;;;;;;;13.48;10.07;;;22.60;99.90;;;;;;5020132;28;20036;-80
2022/07/21 08:25:59;;;;;;;12.57;10.25;;;22.50;99.90;;;;;;5017035;28;20025;-81
2022/07/21 08:28:25;;;;;;;11.05;8.82;;;22.50;99.90;;;;;;5034755;28;20021;-81
2022/07/21 08:30:51;;;;;;;11.05;9.90;;;22.40;99.90;;;;;;5040034;28;20025;-81
2022/07/21 08:33:16;;;;;;;12.32;10.13;;;22.30;99.90;;;;;;5036656;28;20025;-81
2022/07/21 08:35:42;;;;;;;14.55;10.27;;;22.30;99.90;;;;;;5054411;28;20382;-80
2022/07/21 08:38:11;;;;;;;12.65;11.27;;;22.20;99.90;;;;;;5054651;28;20025;-81
2022/07/21 08:40:46;;;;;;;11.63;10.45;;;22.20;99.90;;;;;;5043281;28;20028;-80
2022/07/21 08:43:13;;;;;;;;;;;22.20;99.90;;;;;;5048954;28;20458;-81
2022/07/21 08:45:39;;;;;;;11.60;10.40;;;22.20;99.90;;;;;;5025660;28;19912;-78
2022/07/21 08:48:05;;;;;;;14.10;11.60;;;22.30;99.90;;;;;;5034737;28;20211;-78
2022/07/21 08:50:34;;;;;;;13.25;11.13;;;22.30;99.90;;;;;;5045148;28;20035;-78
2022/07/21 08:53:03;;;;;;;13.18;11.73;;;22.20;99.90;;;;;;5041565;28;20025;-78
2022/07/21 08:55:32;;;;;;;14.35;11.35;;;22.20;99.90;;;;;;5045523;28;20018;-78
2022/07/21 08:57:58;;;;;;;14.02;11.38;;;22.10;99.90;;;;;;5045297;28;20440;-78
2022/07/21 09:00:23;;;;;;;15.15;11.35;;;22.10;99.90;;;;;;5051988;28;20029;-78
2022/07/21 09:02:49;;;;;;;11.75;9.98;;;22.10;99.90;;;;;;5044944;28;20400;-77
2022/07/21 09:05:15;;;;;;;13.60;10.90;;;22.10;99.90;;;;;;5038518;28;20032;-77
2022/07/21 09:07:57;;;;;;;13.45;11.40;;;22.10;99.90;;;;;;5052719;28;20159;-78
2022/07/21 09:10:26;;;;;;;16.73;11.73;;;22.10;99.90;;;;;;5052633;28;20033;-77
2022/07/21 09:12:55;;;;;;;14.25;11.45;;;22.00;99.90;;;;;;5052306;28;20049;-77
2022/07/21 09:15:23;;;;;;;14.27;10.98;;;22.00;99.90;;;;;;5051009;28;20465;-77
2022/07/21 09:18:13;;;;;;;14.15;11.05;;;22.00;99.90;;;;;;5041193;28;20374;-77
2022/07/21 09:20:47;;;;;;;12.18;10.52;;;21.90;99.90;;;;;;5039466;28;20393;-78
2022/07/21 09:23:14;;;;;;;13.32;11.93;;;21.90;99.90;;;;;;5052936;28;20013;-78
2022/07/21 09:25:47;;;;;;;13.32;11.30;;;21.80;99.90;;;;;;5034071;28;20059;-78
2022/07/21 09:28:16;;;;;;;13.70;11.55;;;21.80;99.90;;;;;;5052726;28;20469;-77
2022/07/21 09:30:51;;;;;;;12.55;11.25;;;21.70;99.90;;;;;;5045662;28;20474;-77
2022/07/21 09:33:24;;;;;;;15.88;12.07;;;21.60;99.90;;;;;;5040119;28;20368;-77
2022/07/21 09:36:08;;;;;;;15.77;11.93;;;21.50;99.90;;;;;;5051092;28;20029;-77
2022/07/21 09:38:41;;;;;;;15.98;12.10;;;21.50;99.90;;;;;;5033784;28;20100;-77
2022/07/21 09:41:15;;;;;;;15.63;12.73;;;21.40;99.90;;;;;;5044422;28;20029;-77
2022/07/21 09:43:47;;;;;;;18.52;12.50;;;21.30;99.90;;;;;;5046105;28;20021;-77
2022/07/21 09:46:16;;;;;;;15.93;12.57;;;21.30;99.90;;;;;;5038640;28;20060;-77
2022/07/21 09:48:44;;;;;;;19.17;13.35;;;21.30;99.90;;;;;;5039932;28;20104;-75
2022/07/21 09:51:28;;;;;;;16.20;14.13;;;21.20;99.90;;;;;;5050521;28;20025;-75
2022/07/21 09:53:57;;;;;;;18.73;13.30;;;21.10;99.90;;;;;;5051625;28;20033;-75
2022/07/21 09:56:24;;;;;;;16.20;14.40;;;21.00;99.90;;;;;;5048116;28;20075;-75
2022/07/21 09:58:53;;;;;;;17.73;15.70;;;20.90;99.90;;;;;;5034101;28;20071;-76
2022/07/21 10:01:19;;;;;;;17.13;15.15;;;20.80;99.90;;;;;;5017256;28;20021;-76
2022/07/21 10:03:46;;;;;;;17.50;15.07;;;20.80;99.90;;;;;;5021232;28;20041;-76
2022/07/21 10:06:13;;;;;;;19.05;16.90;;;20.70;99.90;;;;;;5046880;28;20109;-76
2022/07/21 10:08:42;;;;;;;20.77;16.30;;;20.70;99.90;;;;;;5036735;28;20059;-76
2022/07/21 10:11:11;;;;;;;18.80;16.23;;;20.70;99.90;;;;;;5019906;28;20049;-76
2022/07/21 10:13:39;;;;;;;17.95;15.98;;;20.70;99.90;;;;;;5049072;28;20033;-76
2022/07/21 10:16:06;;;;;;;18.63;14.68;;;20.70;99.90;;;;;;5050476;28;20025;-76
2022/07/21 10:19:02;;;;;;;15.43;13.85;;;20.60;99.90;;;;;;5046656;28;20030;-76
2022/07/21 10:22:06;;;;;;;15.13;13.57;;;20.60;99.90;;;;;;5025537;28;20029;-76
2022/07/21 10:24:35;;;;;;;16.05;13.90;;;20.60;99.90;;;;;;5039653;28;20068;-76
2022/07/21 10:27:11;;;;;;;14.38;12.88;;;20.60;99.90;;;;;;5050385;28;20013;-77
2022/07/21 10:29:54;;;;;;;15.00;13.48;;;20.60;99.90;;;;;;5033726;28;20481;-77
2022/07/21 10:32:25;;;;;;;16.65;14.60;;;20.70;99.90;;;;;;5037174;28;20024;-77
2022/07/21 10:34:51;;;;;;;13.35;11.95;;;20.70;99.90;;;;;;5027872;28;20036;-76
2022/07/21 10:37:39;;;;;;;14.73;12.52;;;20.70;99.90;;;;;;5034124;28;20020;-68
2022/07/21 10:40:22;;;;;;;15.60;12.65;;;20.70;99.90;;;;;;5051543;28;20018;-68
2022/07/21 10:43:00;;;;;;;12.35;11.05;;;20.80;99.90;;;;;;5047428;28;20078;-67
2022/07/21 10:45:37;;;;;;;14.20;12.40;;;20.80;99.90;;;;;;5049821;28;20378;-68
2022/07/21 10:48:06;;;;;;;13.77;12.30;;;20.90;99.90;;;;;;5050851;28;20025;-69
2022/07/21 10:50:37;;;;;;;13.38;12.00;;;20.90;99.90;;;;;;5051339;28;20021;-67
2022/07/21 10:53:05;;;;;;;16.25;12.05;;;21.00;99.90;;;;;;5045491;28;20043;-67
2022/07/21 10:55:37;;;;;;;13.40;12.10;;;21.00;99.90;;;;;;5032128;28;20083;-69
2022/07/21 10:58:14;;;;;;;15.60;11.77;;;21.00;99.90;;;;;;5050102;28;20033;-68
2022/07/21 11:00:53;;;;;;;16.33;11.00;;;21.10;99.90;;;;;;5046808;28;20104;-67
2022/07/21 11:03:23;;;;;;;12.90;11.30;;;21.10;99.90;;;;;;5048361;28;20021;-69
2022/07/21 11:06:16;;;;;;;13.30;10.82;;;21.10;99.90;;;;;;5035981;28;20470;-69
2022/07/21 11:08:44;;;;;;;12.95;11.48;;;21.10;99.90;;;;;;5040113;28;20033;-69
2022/07/21 11:11:18;;;;;;;12.55;11.23;;;21.10;99.90;;;;;;5046526;28;20533;-68
2022/07/21 11:14:14;;;;;;;13.95;10.65;;;21.10;99.90;;;;;;5048594;28;20104;-68
2022/07/21 11:16:56;;;;;;;12.20;10.80;;;21.20;99.90;;;;;;5034810;28;20029;-68
2022/07/21 11:19:34;;;;;;;11.93;10.73;;;21.20;99.90;;;;;;5054670;28;20025;-68
2022/07/21 11:22:03;;;;;;;13.55;10.85;;;21.20;99.90;;;;;;5055165;28;20025;-68
2022/07/21 11:24:29;;;;;;;15.10;11.70;;;21.20;99.90;;;;;;5054841;28;20095;-69
2022/07/21 11:26:55;;;;;;;12.82;11.32;;;21.30;99.90;;;;;;5054405;28;20025;-68
2022/07/21 11:29:22;;;;;;;11.95;10.75;;;21.30;99.90;;;;;;5046135;28;20028;-68
2022/07/21 11:31:48;;;;;;;10.63;9.43;;;21.30;99.90;;;;;;5054115;28;20025;-69
2022/07/21 11:34:13;;;;;;;15.75;11.90;;;21.40;99.90;;;;;;5047385;28;20493;-69
2022/07/21 11:36:39;;;;;;;14.73;11.15;;;21.40;99.90;;;;;;5028450;28;20108;-69
2022/07/21 11:39:13;;;;;;;15.48;11.20;;;21.40;99.90;;;;;;5041472;28;20026;-68
2022/07/21 11:41:40;;;;;;;14.15;11.13;;;21.40;99.90;;;;;;5046225;28;20025;-69
2022/07/21 11:44:08;;;;;;;13.68;11.85;;;21.50;99.90;;;;;;5033599;28;20033;-68
2022/07/21 11:46:47;;;;;;;12.50;11.20;;;21.60;99.90;;;;;;5047930;28;20469;-71
2022/07/21 11:49:12;;;;;;;13.00;10.38;;;21.60;99.90;;;;;;5023543;28;20036;-71
2022/07/21 11:51:45;;;;;;;14.38;11.18;;;21.70;99.90;;;;;;5049431;28;20036;-71
2022/07/21 11:54:22;;;;;;;13.40;10.95;;;21.80;99.90;;;;;;5046113;28;20425;-71
2022/07/21 11:56:50;;;;;;;14.93;11.90;;;21.90;99.90;;;;;;5049010;28;20079;-68
2022/07/21 11:59:16;;;;;;;12.02;10.68;;;22.00;99.90;;;;;;5049411;28;20131;-68
2022/07/21 12:01:52;;;;;;;12.13;10.88;;;22.10;99.90;;;;;;5047713;28;20135;-68
2022/07/21 12:04:32;;;;;;;15.30;11.45;;;22.10;99.90;;;;;;5048786;28;20437;-68
2022/07/21 12:06:59;;;;;;;12.32;10.98;;;22.20;99.90;;;;;;5048581;28;20032;-68
2022/07/21 12:09:25;;;;;;;12.73;10.95;;;22.20;99.90;;;;;;5031006;28;20033;-68
2022/07/21 12:11:51;;;;;;;13.15;10.63;;;22.30;99.90;;;;;;5048237;28;20057;-68
2022/07/21 12:14:17;;;;;;;11.45;9.82;;;22.30;99.90;;;;;;5041922;28;20484;-69
2022/07/21 12:16:53;;;;;;;14.23;11.93;;;22.40;99.90;;;;;;5046166;28;20028;-69
2022/07/21 12:19:20;;;;;;;15.57;11.20;;;22.50;99.90;;;;;;5051001;28;20548;-69
2022/07/21 12:21:49;;;;;;;12.13;10.52;;;22.60;99.90;;;;;;5050684;28;20377;-71
2022/07/21 12:24:15;;;;;;;13.85;11.27;;;22.70;99.90;;;;;;5033369;28;20442;-68
2022/07/21 12:26:41;;;;;;;13.13;11.13;;;22.60;99.90;;;;;;5049322;28;20128;-68
2022/07/21 12:29:07;;;;;;;11.88;10.68;;;22.60;99.90;;;;;;5045588;28;20470;-68
2022/07/21 12:31:35;;;;;;;12.70;10.65;;;22.60;99.90;;;;;;5047366;28;20111;-68
2022/07/21 12:34:12;;;;;;;13.10;11.43;;;22.60;99.90;;;;;;5048671;28;20170;-68
2022/07/21 12:36:38;;;;;;;11.27;9.70;;;22.70;99.90;;;;;;5048698;28;20118;-68
2022/07/21 12:42:10;;;;;;;17.05;11.23;;;22.80;99.90;;;;;;5048839;28;20036;-69